createdAt,value
2023-02-28T00:00:52.676Z,100.00
2023-02-28T00:03:22.728Z,100.00
2023-02-28T00:05:52.807Z,100.00
2023-02-28T00:08:22.836Z,100.00
2023-02-28T00:10:52.895Z,100.00
2023-02-28T00:13:23.056Z,100.00
2023-02-28T00:16:24.121Z,100.00
2023-02-28T00:18:53.208Z,100.00
2023-02-28T00:21:22.209Z,100.00
2023-02-28T00:23:50.480Z,100.00
2023-02-28T00:26:21.287Z,100.00
2023-02-28T00:28:53.997Z,100.00
2023-02-28T00:31:24.513Z,100.00
2023-02-28T00:33:54.577Z,100.00
2023-02-28T00:36:24.812Z,100.00
2023-02-28T00:38:54.847Z,100.00
2023-02-28T00:41:24.933Z,100.00
2023-02-28T00:43:54.986Z,100.00
2023-02-28T00:46:25.267Z,100.00
2023-02-28T00:48:55.381Z,100.00
2023-02-28T00:51:25.522Z,100.00
2023-02-28T00:53:55.644Z,100.00
2023-02-28T00:56:25.635Z,100.00
2023-02-28T00:58:55.607Z,100.00
2023-02-28T01:01:25.728Z,100.00
2023-02-28T01:03:55.776Z,100.00
2023-02-28T01:06:25.937Z,100.00
2023-02-28T01:08:54.258Z,100.00
2023-02-28T01:11:22.703Z,100.00
2023-02-28T01:13:51.380Z,100.00
2023-02-28T01:16:19.932Z,100.00
2023-02-28T01:18:47.954Z,100.00
2023-02-28T01:21:22.159Z,100.00
2023-02-28T01:23:52.548Z,100.00
2023-02-28T01:26:25.155Z,100.00
2023-02-28T01:28:55.303Z,100.00
2023-02-28T01:31:26.967Z,100.00
2023-02-28T01:33:57.290Z,100.00
2023-02-28T01:36:27.772Z,100.00
2023-02-28T01:38:58.166Z,100.00
2023-02-28T01:41:34.538Z,100.00
2023-02-28T01:44:56.423Z,100.00
2023-02-28T01:47:39.556Z,100.00
2023-02-28T01:50:21.683Z,100.00
2023-02-28T01:52:56.283Z,100.00
2023-02-28T01:55:29.657Z,100.00
2023-02-28T01:58:06.726Z,100.00
2023-02-28T02:00:35.927Z,100.00
2023-02-28T02:03:17.284Z,100.00
2023-02-28T02:05:48.646Z,100.00
2023-02-28T02:08:29.138Z,100.00
2023-02-28T02:11:03.680Z,100.00
2023-02-28T02:14:27.359Z,100.00
2023-02-28T02:17:22.100Z,100.00
2023-02-28T02:21:15.975Z,100.00
2023-02-28T02:24:20.880Z,100.00
2023-02-28T02:27:20.780Z,100.00
2023-02-28T02:30:18.739Z,100.00
2023-02-28T02:33:44.070Z,100.00
2023-02-28T02:36:44.563Z,100.00
2023-02-28T02:39:35.036Z,100.00
2023-02-28T02:43:02.248Z,100.00
2023-02-28T02:46:11.215Z,100.00
2023-02-28T02:48:45.533Z,100.00
2023-02-28T02:51:24.163Z,100.00
2023-02-28T02:54:09.817Z,100.00
2023-02-28T02:56:48.156Z,100.00
2023-02-28T02:59:25.038Z,100.00
2023-02-28T03:02:04.814Z,100.00
2023-02-28T03:04:53.737Z,100.00
2023-02-28T03:07:23.740Z,100.00
2023-02-28T03:09:57.779Z,100.00
2023-02-28T03:13:04.968Z,100.00
2023-02-28T03:16:24.323Z,100.00
2023-02-28T03:19:32.205Z,100.00
2023-02-28T03:22:33.404Z,100.00
2023-02-28T03:25:27.575Z,100.00
2023-02-28T03:28:24.233Z,100.00
2023-02-28T03:31:31.565Z,100.00
2023-02-28T03:34:27.708Z,100.00
2023-02-28T03:37:13.450Z,100.00
2023-02-28T03:40:07.854Z,100.00
2023-02-28T03:42:46.255Z,100.00
2023-02-28T03:45:31.324Z,100.00
2023-02-28T03:48:50.106Z,100.00
2023-02-28T03:51:28.703Z,100.00
2023-02-28T03:54:14.139Z,100.00
2023-02-28T03:57:07.220Z,100.00
2023-02-28T03:59:55.457Z,100.00
2023-02-28T04:02:25.905Z,100.00
2023-02-28T04:04:56.055Z,100.00
2023-02-28T04:07:31.569Z,100.00
2023-02-28T04:10:01.692Z,100.00
2023-02-28T04:12:31.833Z,100.00
2023-02-28T04:15:01.966Z,100.00
2023-02-28T04:17:32.009Z,100.00
2023-02-28T04:20:02.046Z,100.00
2023-02-28T04:22:32.033Z,100.00
2023-02-28T04:25:02.066Z,100.00
2023-02-28T04:27:32.830Z,100.00
2023-02-28T04:30:03.501Z,100.00
2023-02-28T04:32:32.102Z,100.00
2023-02-28T04:35:02.220Z,100.00
2023-02-28T04:37:35.847Z,100.00
2023-02-28T04:40:07.106Z,100.00
2023-02-28T04:42:37.169Z,100.00
2023-02-28T04:45:11.216Z,100.00
2023-02-28T04:47:41.218Z,100.00
2023-02-28T04:50:11.837Z,100.00
2023-02-28T04:52:41.858Z,100.00
2023-02-28T04:55:11.905Z,100.00
2023-02-28T04:57:43.616Z,100.00
2023-02-28T05:00:16.342Z,100.00
2023-02-28T05:02:46.405Z,100.00
2023-02-28T05:05:19.157Z,100.00
2023-02-28T05:07:49.223Z,100.00
2023-02-28T05:10:19.550Z,100.00
2023-02-28T05:12:49.670Z,100.00
2023-02-28T05:15:19.711Z,100.00
2023-02-28T05:17:49.727Z,100.00
2023-02-28T05:20:19.879Z,100.00
2023-02-28T05:22:51.499Z,100.00
2023-02-28T05:25:23.755Z,100.00
2023-02-28T05:27:53.800Z,100.00
2023-02-28T05:30:23.859Z,100.00
2023-02-28T05:32:53.909Z,100.00
2023-02-28T05:35:24.890Z,100.00
2023-02-28T05:37:54.950Z,100.00
2023-02-28T05:40:25.081Z,100.00
2023-02-28T05:42:55.108Z,100.00
2023-02-28T05:45:25.208Z,100.00
2023-02-28T05:47:56.932Z,100.00
2023-02-28T05:50:26.928Z,100.00
2023-02-28T05:52:56.968Z,100.00
2023-02-28T05:55:27.188Z,100.00
2023-02-28T05:57:57.605Z,100.00
2023-02-28T06:00:27.869Z,100.00
2023-02-28T06:03:01.069Z,100.00
2023-02-28T06:05:31.254Z,100.00
2023-02-28T06:08:01.349Z,100.00
2023-02-28T06:10:29.882Z,100.00
2023-02-28T06:13:03.505Z,100.00
2023-02-28T06:15:34.052Z,100.00
2023-02-28T06:18:04.321Z,100.00
2023-02-28T06:20:34.474Z,100.00
2023-02-28T06:23:04.694Z,100.00
2023-02-28T06:25:34.773Z,100.00
2023-02-28T06:28:05.277Z,100.00
2023-02-28T06:30:35.438Z,100.00
2023-02-28T06:33:05.700Z,100.00
2023-02-28T06:35:36.256Z,100.00
2023-02-28T06:38:06.351Z,100.00
2023-02-28T06:40:36.943Z,100.00
2023-02-28T06:43:06.989Z,100.00
2023-02-28T06:45:37.132Z,100.00
2023-02-28T06:48:07.276Z,100.00
2023-02-28T06:50:38.385Z,100.00
2023-02-28T06:53:08.378Z,100.00
2023-02-28T06:55:40.791Z,100.00
2023-02-28T06:58:16.936Z,100.00
2023-02-28T07:00:53.421Z,100.00
2023-02-28T07:03:24.197Z,100.00
2023-02-28T07:05:54.354Z,100.00
2023-02-28T07:08:26.461Z,100.00
2023-02-28T07:10:57.948Z,100.00
2023-02-28T07:13:28.129Z,100.00
2023-02-28T07:16:05.764Z,100.00
2023-02-28T07:18:38.173Z,100.00
2023-02-28T07:21:11.765Z,100.00
2023-02-28T07:23:42.807Z,100.00
2023-02-28T07:26:19.265Z,100.00
2023-02-28T07:28:51.142Z,100.00
2023-02-28T07:31:21.331Z,100.00
2023-02-28T07:33:51.385Z,100.00
2023-02-28T07:36:21.409Z,100.00
2023-02-28T07:38:51.656Z,100.00
2023-02-28T07:41:25.771Z,100.00
2023-02-28T07:44:00.625Z,100.00
2023-02-28T07:46:36.659Z,100.00
2023-02-28T07:49:07.306Z,100.00
2023-02-28T07:51:37.421Z,100.00
2023-02-28T07:54:07.500Z,100.00
2023-02-28T07:56:37.525Z,100.00
2023-02-28T07:59:07.544Z,100.00
2023-02-28T08:01:37.605Z,100.00
2023-02-28T08:04:07.649Z,96.72
2023-02-28T08:06:37.683Z,98.07
2023-02-28T08:09:07.773Z,97.69
2023-02-28T08:11:37.335Z,97.41
2023-02-28T08:14:04.603Z,87.98
2023-02-28T08:16:33.008Z,80.80
2023-02-28T08:19:01.450Z,72.88
2023-02-28T08:21:30.262Z,72.29
2023-02-28T08:23:58.237Z,76.24
2023-02-28T08:26:27.217Z,77.44
2023-02-28T08:28:56.834Z,77.28
2023-02-28T08:31:26.499Z,77.45
2023-02-28T08:33:59.906Z,78.51
2023-02-28T08:36:30.075Z,77.08
2023-02-28T08:39:00.744Z,80.18
2023-02-28T08:41:31.499Z,81.52
2023-02-28T08:44:02.519Z,79.04
2023-02-28T08:46:32.554Z,70.78
2023-02-28T08:49:02.943Z,75.77
2023-02-28T08:51:33.383Z,68.86
2023-02-28T08:54:03.578Z,69.10
2023-02-28T08:56:33.635Z,70.25
2023-02-28T08:59:03.664Z,66.10
2023-02-28T09:01:33.885Z,65.93
2023-02-28T09:04:04.373Z,65.75
2023-02-28T09:06:34.430Z,64.17
2023-02-28T09:09:07.412Z,60.53
2023-02-28T09:11:38.314Z,57.05
2023-02-28T09:14:08.833Z,56.63
2023-02-28T09:16:38.921Z,56.92
2023-02-28T09:19:13.801Z,58.19
2023-02-28T09:21:43.911Z,59.69
2023-02-28T09:24:16.149Z,59.63
2023-02-28T09:27:01.727Z,54.22
2023-02-28T09:29:36.218Z,52.92
2023-02-28T09:32:06.966Z,50.36
2023-02-28T09:34:38.118Z,53.19
2023-02-28T09:37:09.138Z,54.90
2023-02-28T09:39:36.647Z,54.18
2023-02-28T09:42:23.560Z,53.84
2023-02-28T09:44:54.737Z,54.14
2023-02-28T09:47:43.330Z,56.41
2023-02-28T09:50:43.756Z,56.79
2023-02-28T09:53:45.793Z,53.67
2023-02-28T09:56:32.946Z,53.39
2023-02-28T09:59:17.142Z,54.51
2023-02-28T10:02:23.232Z,53.35
2023-02-28T10:05:15.683Z,53.33
2023-02-28T10:08:22.418Z,51.28
2023-02-28T10:11:05.418Z,51.29
2023-02-28T10:13:51.515Z,49.17
2023-02-28T10:16:36.164Z,53.48
2023-02-28T10:19:44.550Z,50.95
2023-02-28T10:22:34.130Z,46.54
2023-02-28T10:25:22.891Z,45.72
2023-02-28T10:28:12.182Z,46.98
2023-02-28T10:30:54.735Z,49.19
2023-02-28T10:33:36.850Z,46.36
2023-02-28T10:36:11.381Z,46.95
2023-02-28T10:38:41.900Z,44.99
2023-02-28T10:41:37.432Z,45.42
2023-02-28T10:44:24.932Z,50.80
2023-02-28T10:46:54.964Z,50.06
2023-02-28T10:49:31.650Z,46.36
2023-02-28T10:52:02.247Z,47.32
2023-02-28T10:54:38.889Z,46.97
2023-02-28T10:57:26.976Z,48.08
2023-02-28T11:00:20.059Z,49.44
2023-02-28T11:02:50.406Z,47.45
2023-02-28T11:05:32.438Z,47.18
2023-02-28T11:08:19.370Z,49.78
2023-02-28T11:11:01.867Z,47.16
2023-02-28T11:13:41.171Z,49.99
2023-02-28T11:16:15.355Z,50.47
2023-02-28T11:18:56.608Z,49.08
2023-02-28T11:21:41.390Z,46.73
2023-02-28T11:24:42.691Z,50.65
2023-02-28T11:27:49.244Z,48.41
2023-02-28T11:30:42.218Z,51.38
2023-02-28T11:33:42.746Z,52.58
2023-02-28T11:36:33.052Z,50.13
2023-02-28T11:39:13.687Z,50.54
2023-02-28T11:42:15.133Z,50.27
2023-02-28T11:45:41.635Z,51.64
2023-02-28T11:48:29.019Z,50.74
2023-02-28T11:51:53.171Z,51.16
2023-02-28T11:55:23.779Z,50.97
2023-02-28T11:58:54.932Z,51.49
2023-02-28T12:01:48.130Z,55.09
2023-02-28T12:05:07.871Z,52.07
2023-02-28T12:07:44.285Z,52.78
2023-02-28T12:10:32.923Z,52.47
2023-02-28T12:13:50.602Z,53.62
2023-02-28T12:16:45.850Z,52.37
2023-02-28T12:19:53.745Z,54.58
2023-02-28T12:22:31.532Z,53.94
2023-02-28T12:25:45.847Z,50.45
2023-02-28T12:28:27.403Z,50.65
2023-02-28T12:31:17.010Z,53.97
2023-02-28T12:33:58.404Z,53.16
2023-02-28T12:36:29.771Z,53.15
2023-02-28T12:39:24.124Z,53.27
2023-02-28T12:42:29.564Z,50.99
2023-02-28T12:45:21.765Z,51.31
2023-02-28T12:48:06.948Z,50.55
2023-02-28T12:50:37.195Z,52.61
2023-02-28T12:53:29.945Z,53.85
2023-02-28T12:56:31.816Z,53.32
2023-02-28T12:59:22.923Z,55.38
2023-02-28T13:02:04.730Z,52.32
2023-02-28T13:05:42.544Z,50.54
2023-02-28T13:09:10.175Z,51.74
2023-02-28T13:11:50.348Z,50.20
2023-02-28T13:14:31.556Z,51.10
2023-02-28T13:17:09.946Z,50.73
2023-02-28T13:19:53.215Z,51.94
2023-02-28T13:22:48.174Z,52.47
2023-02-28T13:25:23.917Z,50.08
2023-02-28T13:27:57.977Z,49.94
2023-02-28T13:30:53.897Z,52.81
2023-02-28T13:33:35.268Z,54.32
2023-02-28T13:36:20.442Z,49.75
2023-02-28T13:38:56.516Z,48.86
2023-02-28T13:41:32.809Z,48.03
2023-02-28T13:45:04.301Z,47.31
2023-02-28T13:47:57.000Z,49.09
2023-02-28T13:50:26.884Z,47.36
2023-02-28T13:53:14.808Z,46.81
2023-02-28T13:56:42.750Z,47.23
2023-02-28T13:59:52.943Z,47.70
2023-02-28T14:02:55.082Z,46.50
2023-02-28T14:05:27.839Z,48.16
2023-02-28T14:08:16.329Z,46.97
2023-02-28T14:11:10.351Z,44.81
2023-02-28T14:13:48.294Z,46.95
2023-02-28T14:16:28.267Z,46.84
2023-02-28T14:19:33.979Z,46.62
2023-02-28T14:23:16.370Z,47.97
2023-02-28T14:26:32.044Z,46.96
2023-02-28T14:30:08.008Z,45.76
2023-02-28T14:33:24.629Z,44.44
2023-02-28T14:36:08.176Z,42.46
2023-02-28T14:38:57.512Z,43.53
2023-02-28T14:41:42.837Z,41.94
2023-02-28T14:44:23.900Z,40.30
2023-02-28T14:47:07.495Z,40.21
2023-02-28T14:49:47.655Z,39.58
2023-02-28T14:52:34.558Z,38.95
2023-02-28T14:55:17.937Z,38.46
2023-02-28T14:58:07.725Z,39.45
2023-02-28T15:00:49.759Z,43.41
2023-02-28T15:03:36.307Z,43.89
2023-02-28T15:06:19.093Z,43.95
2023-02-28T15:08:49.133Z,43.68
2023-02-28T15:11:23.365Z,41.70
2023-02-28T15:13:59.093Z,42.20
2023-02-28T15:16:41.384Z,45.53
2023-02-28T15:19:35.566Z,46.38
2023-02-28T15:22:15.723Z,47.12
2023-02-28T15:24:53.521Z,47.12
2023-02-28T15:27:35.134Z,51.64
2023-02-28T15:30:19.726Z,51.94
2023-02-28T15:33:30.560Z,52.08
2023-02-28T15:36:34.402Z,53.71
2023-02-28T15:39:15.545Z,52.68
2023-02-28T15:41:46.121Z,52.84
2023-02-28T15:44:36.951Z,54.42
2023-02-28T15:47:22.553Z,53.48
2023-02-28T15:50:03.268Z,55.30
2023-02-28T15:52:45.139Z,54.26
2023-02-28T15:55:24.792Z,55.25
2023-02-28T15:58:00.688Z,55.70
2023-02-28T16:00:33.930Z,56.88
2023-02-28T16:03:39.878Z,57.96
2023-02-28T16:07:05.821Z,60.14
2023-02-28T16:09:35.825Z,59.07
2023-02-28T16:12:08.290Z,60.26
2023-02-28T16:14:39.721Z,61.97
2023-02-28T16:17:27.950Z,61.64
2023-02-28T16:19:57.162Z,62.60
2023-02-28T16:22:27.390Z,63.68
2023-02-28T16:24:55.420Z,64.66
2023-02-28T16:27:38.331Z,64.60
2023-02-28T16:30:23.504Z,65.19
2023-02-28T16:32:57.019Z,65.96
2023-02-28T16:35:27.114Z,65.92
2023-02-28T16:37:57.222Z,66.91
2023-02-28T16:40:29.697Z,67.18
2023-02-28T16:43:08.265Z,69.06
2023-02-28T16:45:38.450Z,68.81
2023-02-28T16:48:17.215Z,69.99
2023-02-28T16:50:45.904Z,71.27
2023-02-28T16:53:16.033Z,71.32
2023-02-28T16:55:46.483Z,74.13
2023-02-28T16:58:18.427Z,73.18
2023-02-28T17:00:48.631Z,74.85
2023-02-28T17:03:33.563Z,77.85
2023-02-28T17:06:05.660Z,80.82
2023-02-28T17:08:35.964Z,80.42
2023-02-28T17:11:06.099Z,82.27
2023-02-28T17:13:36.121Z,83.75
2023-02-28T17:16:07.391Z,86.63
2023-02-28T17:18:37.624Z,87.69
2023-02-28T17:21:18.094Z,89.83
2023-02-28T17:23:48.168Z,91.39
2023-02-28T17:26:22.350Z,93.37
2023-02-28T17:28:56.855Z,93.86
2023-02-28T17:31:28.692Z,95.67
2023-02-28T17:33:58.802Z,97.13
2023-02-28T17:36:29.353Z,99.29
2023-02-28T17:38:59.611Z,100.00
2023-02-28T17:41:31.398Z,100.00
2023-02-28T17:44:01.127Z,100.00
2023-02-28T17:46:29.936Z,100.00
2023-02-28T17:48:58.056Z,100.00
2023-02-28T17:51:26.830Z,100.00
2023-02-28T17:53:54.919Z,100.00
2023-02-28T17:56:27.271Z,100.00
2023-02-28T17:58:58.397Z,100.00
2023-02-28T18:01:29.161Z,100.00
2023-02-28T18:03:59.252Z,100.00
2023-02-28T18:06:48.321Z,100.00
2023-02-28T18:09:23.749Z,100.00
2023-02-28T18:11:57.096Z,100.00
2023-02-28T18:14:28.119Z,100.00
2023-02-28T18:16:58.359Z,100.00
2023-02-28T18:19:28.469Z,100.00
2023-02-28T18:21:58.732Z,100.00
2023-02-28T18:24:28.771Z,100.00
2023-02-28T18:26:57.220Z,100.00
2023-02-28T18:29:28.648Z,100.00
2023-02-28T18:31:57.594Z,100.00
2023-02-28T18:34:26.549Z,100.00
2023-02-28T18:36:54.076Z,100.00
2023-02-28T18:39:22.484Z,100.00
2023-02-28T18:41:50.660Z,100.00
2023-02-28T18:44:20.975Z,100.00
2023-02-28T18:46:51.354Z,100.00
2023-02-28T18:49:21.749Z,100.00
2023-02-28T18:51:52.958Z,100.00
2023-02-28T18:54:22.997Z,100.00
2023-02-28T18:56:54.076Z,100.00
2023-02-28T18:59:24.171Z,100.00
2023-02-28T19:01:54.249Z,100.00
2023-02-28T19:04:24.545Z,100.00
2023-02-28T19:06:54.571Z,100.00
2023-02-28T19:09:24.740Z,100.00
2023-02-28T19:11:54.803Z,100.00
2023-02-28T19:14:24.841Z,100.00
2023-02-28T19:16:54.923Z,100.00
2023-02-28T19:19:24.980Z,100.00
2023-02-28T19:21:56.254Z,100.00
2023-02-28T19:24:26.352Z,100.00
2023-02-28T19:26:56.421Z,100.00
2023-02-28T19:29:27.239Z,100.00
2023-02-28T19:31:57.451Z,100.00
2023-02-28T19:34:27.641Z,100.00
2023-02-28T19:36:57.750Z,100.00
2023-02-28T19:39:27.920Z,100.00
2023-02-28T19:41:57.963Z,100.00
2023-02-28T19:44:28.250Z,100.00
2023-02-28T19:46:58.323Z,100.00
2023-02-28T19:49:28.430Z,100.00
2023-02-28T19:51:59.458Z,100.00
2023-02-28T19:54:29.657Z,100.00
2023-02-28T19:56:59.820Z,100.00
2023-02-28T19:59:39.245Z,100.00
2023-02-28T20:02:19.089Z,100.00
2023-02-28T20:04:51.224Z,100.00
2023-02-28T20:07:21.609Z,100.00
2023-02-28T20:09:51.951Z,100.00
2023-02-28T20:12:24.329Z,100.00
2023-02-28T20:14:58.223Z,100.00
2023-02-28T20:17:28.371Z,100.00
2023-02-28T20:19:58.429Z,100.00
2023-02-28T20:22:28.476Z,100.00
2023-02-28T20:24:58.530Z,100.00
2023-02-28T20:27:29.496Z,100.00
2023-02-28T20:29:58.772Z,100.00
2023-02-28T20:32:29.021Z,100.00
2023-02-28T20:34:59.206Z,100.00
2023-02-28T20:37:29.289Z,100.00
2023-02-28T20:39:59.351Z,100.00
2023-02-28T20:42:29.369Z,100.00
2023-02-28T20:44:59.625Z,100.00
2023-02-28T20:47:29.727Z,100.00
2023-02-28T20:49:59.766Z,100.00
2023-02-28T20:52:29.441Z,100.00
2023-02-28T20:54:59.509Z,100.00
2023-02-28T20:57:30.808Z,100.00
2023-02-28T21:00:00.188Z,100.00
2023-02-28T21:02:31.260Z,100.00
2023-02-28T21:05:00.707Z,100.00
2023-02-28T21:07:30.869Z,100.00
2023-02-28T21:10:00.896Z,100.00
2023-02-28T21:12:31.016Z,100.00
2023-02-28T21:15:01.094Z,100.00
2023-02-28T21:17:30.941Z,100.00
2023-02-28T21:20:00.967Z,100.00
2023-02-28T21:22:30.989Z,100.00
2023-02-28T21:24:59.425Z,100.00
2023-02-28T21:27:28.030Z,100.00
2023-02-28T21:29:56.264Z,100.00
2023-02-28T21:32:24.710Z,100.00
2023-02-28T21:34:54.788Z,100.00
2023-02-28T21:37:24.835Z,100.00
2023-02-28T21:39:53.037Z,100.00
2023-02-28T21:42:21.557Z,100.00
2023-02-28T21:44:50.386Z,100.00
2023-02-28T21:47:18.140Z,100.00
2023-02-28T21:49:46.616Z,100.00
2023-02-28T21:52:15.076Z,100.00
2023-02-28T21:54:42.464Z,100.00
2023-02-28T21:57:14.256Z,100.00
2023-02-28T21:59:44.752Z,100.00
2023-02-28T22:02:14.842Z,100.00
2023-02-28T22:04:44.910Z,100.00
2023-02-28T22:07:15.861Z,100.00
2023-02-28T22:09:45.916Z,100.00
2023-02-28T22:12:16.492Z,100.00
2023-02-28T22:14:46.604Z,100.00
2023-02-28T22:17:16.696Z,100.00
2023-02-28T22:19:46.843Z,100.00
2023-02-28T22:22:16.906Z,100.00
2023-02-28T22:24:46.973Z,100.00
2023-02-28T22:27:17.081Z,100.00
2023-02-28T22:29:48.734Z,100.00
2023-02-28T22:32:18.893Z,100.00
2023-02-28T22:34:52.835Z,100.00
2023-02-28T22:37:22.916Z,100.00
2023-02-28T22:39:52.986Z,100.00
2023-02-28T22:42:23.322Z,100.00
2023-02-28T22:44:53.375Z,100.00
2023-02-28T22:47:26.552Z,100.00
2023-02-28T22:49:56.586Z,100.00
2023-02-28T22:52:26.603Z,100.00
2023-02-28T22:54:56.728Z,100.00
2023-02-28T22:57:26.812Z,100.00
2023-02-28T22:59:56.867Z,100.00
2023-02-28T23:02:27.284Z,100.00
2023-02-28T23:04:57.369Z,100.00
2023-02-28T23:07:27.884Z,100.00
2023-02-28T23:09:57.945Z,100.00
2023-02-28T23:12:29.243Z,100.00
2023-02-28T23:14:59.892Z,100.00
2023-02-28T23:17:32.340Z,100.00
2023-02-28T23:20:02.443Z,100.00
2023-02-28T23:22:32.706Z,100.00
2023-02-28T23:25:02.874Z,100.00
2023-02-28T23:27:33.683Z,100.00
2023-02-28T23:30:04.452Z,100.00
2023-02-28T23:32:32.874Z,100.00
2023-02-28T23:35:03.015Z,100.00
2023-02-28T23:37:33.269Z,100.00
2023-02-28T23:40:06.136Z,100.00
2023-02-28T23:42:36.427Z,100.00
2023-02-28T23:45:07.469Z,100.00
2023-02-28T23:47:34.847Z,100.00
2023-02-28T23:50:04.023Z,100.00
2023-02-28T23:52:31.432Z,100.00
2023-02-28T23:55:00.941Z,100.00
2023-02-28T23:57:29.756Z,100.00
2023-02-28T23:59:59.772Z,100.00
